sensor_id;sensor_type;location;lat;lon;timestamp;pressure;altitude;pressure_sealevel;temperature;humidity
73651;BME280;61944;52.538;6.108;2023-06-14T00:01:01;101462.25;;;20.25;47.81
73651;BME280;61944;52.538;6.108;2023-06-14T00:03:29;101463.72;;;19.82;48.42
73651;BME280;61944;52.538;6.108;2023-06-14T00:05:54;101467.22;;;19.90;48.23
73651;BME280;61944;52.538;6.108;2023-06-14T00:08:19;101466.94;;;19.84;48.23
73651;BME280;61944;52.538;6.108;2023-06-14T00:10:48;101462.88;;;19.51;49.50
73651;BME280;61944;52.538;6.108;2023-06-14T00:13:13;101463.50;;;19.66;49.05
73651;BME280;61944;52.538;6.108;2023-06-14T00:15:39;101460.16;;;19.75;48.67
73651;BME280;61944;52.538;6.108;2023-06-14T00:18:05;101455.22;;;19.79;48.39
73651;BME280;61944;52.538;6.108;2023-06-14T00:20:32;101461.00;;;19.41;48.98
73651;BME280;61944;52.538;6.108;2023-06-14T00:23:00;101460.66;;;19.35;49.43
73651;BME280;61944;52.538;6.108;2023-06-14T00:25:26;101457.78;;;19.39;49.27
73651;BME280;61944;52.538;6.108;2023-06-14T00:27:52;101454.25;;;19.58;48.72
73651;BME280;61944;52.538;6.108;2023-06-14T00:30:18;101462.72;;;19.65;49.19
73651;BME280;61944;52.538;6.108;2023-06-14T00:32:44;101456.94;;;19.42;48.75
73651;BME280;61944;52.538;6.108;2023-06-14T00:35:10;101456.88;;;19.45;48.89
73651;BME280;61944;52.538;6.108;2023-06-14T00:37:35;101459.97;;;19.27;49.14
73651;BME280;61944;52.538;6.108;2023-06-14T00:40:01;101458.53;;;19.43;49.01
73651;BME280;61944;52.538;6.108;2023-06-14T00:42:27;101465.63;;;19.27;49.31
73651;BME280;61944;52.538;6.108;2023-06-14T00:44:53;101467.28;;;19.25;48.95
73651;BME280;61944;52.538;6.108;2023-06-14T00:47:18;101463.59;;;19.28;49.02
73651;BME280;61944;52.538;6.108;2023-06-14T00:49:45;101464.94;;;19.16;49.82
73651;BME280;61944;52.538;6.108;2023-06-14T00:52:11;101463.72;;;19.17;49.63
73651;BME280;61944;52.538;6.108;2023-06-14T00:54:38;101461.69;;;19.18;49.26
73651;BME280;61944;52.538;6.108;2023-06-14T00:57:03;101462.72;;;18.97;50.20
73651;BME280;61944;52.538;6.108;2023-06-14T00:59:29;101458.22;;;19.03;49.88
73651;BME280;61944;52.538;6.108;2023-06-14T01:01:55;101464.66;;;19.07;50.18
73651;BME280;61944;52.538;6.108;2023-06-14T01:04:20;101460.13;;;19.13;49.82
73651;BME280;61944;52.538;6.108;2023-06-14T01:06:51;101466.16;;;19.19;49.30
73651;BME280;61944;52.538;6.108;2023-06-14T01:09:27;101462.19;;;19.09;49.58
73651;BME280;61944;52.538;6.108;2023-06-14T01:12:07;101458.34;;;18.92;50.12
73651;BME280;61944;52.538;6.108;2023-06-14T01:14:37;101470.31;;;19.07;49.83
73651;BME280;61944;52.538;6.108;2023-06-14T01:17:03;101459.75;;;19.11;50.01
73651;BME280;61944;52.538;6.108;2023-06-14T01:19:30;101461.13;;;18.96;50.02
73651;BME280;61944;52.538;6.108;2023-06-14T01:21:57;101462.56;;;18.73;50.87
73651;BME280;61944;52.538;6.108;2023-06-14T01:24:23;101462.31;;;18.98;49.91
73651;BME280;61944;52.538;6.108;2023-06-14T01:26:54;101462.94;;;18.75;50.23
73651;BME280;61944;52.538;6.108;2023-06-14T01:29:22;101457.53;;;18.92;49.94
73651;BME280;61944;52.538;6.108;2023-06-14T01:31:50;101456.84;;;18.77;50.26
73651;BME280;61944;52.538;6.108;2023-06-14T01:34:15;101466.09;;;18.84;50.19
73651;BME280;61944;52.538;6.108;2023-06-14T01:36:43;101453.78;;;18.57;51.23
73651;BME280;61944;52.538;6.108;2023-06-14T01:39:13;101463.31;;;18.81;50.18
73651;BME280;61944;52.538;6.108;2023-06-14T01:41:40;101463.72;;;18.34;51.90
73651;BME280;61944;52.538;6.108;2023-06-14T01:44:06;101469.78;;;18.78;50.24
73651;BME280;61944;52.538;6.108;2023-06-14T01:46:31;101478.09;;;18.58;50.86
73651;BME280;61944;52.538;6.108;2023-06-14T01:48:57;101464.63;;;18.69;50.84
73651;BME280;61944;52.538;6.108;2023-06-14T01:51:23;101471.97;;;18.63;50.67
73651;BME280;61944;52.538;6.108;2023-06-14T01:53:48;101458.63;;;18.60;50.82
73651;BME280;61944;52.538;6.108;2023-06-14T01:56:13;101471.31;;;18.44;51.30
73651;BME280;61944;52.538;6.108;2023-06-14T01:58:39;101466.28;;;18.18;52.08
73651;BME280;61944;52.538;6.108;2023-06-14T02:01:05;101479.31;;;18.57;51.18
73651;BME280;61944;52.538;6.108;2023-06-14T02:03:31;101466.50;;;18.41;51.55
73651;BME280;61944;52.538;6.108;2023-06-14T02:05:57;101475.81;;;18.38;51.20
73651;BME280;61944;52.538;6.108;2023-06-14T02:08:23;101466.69;;;18.16;51.95
73651;BME280;61944;52.538;6.108;2023-06-14T02:10:48;101473.44;;;18.33;51.81
73651;BME280;61944;52.538;6.108;2023-06-14T02:13:14;101476.56;;;18.46;51.23
73651;BME280;61944;52.538;6.108;2023-06-14T02:15:39;101471.50;;;18.23;52.73
73651;BME280;61944;52.538;6.108;2023-06-14T02:18:05;101462.38;;;17.97;53.08
73651;BME280;61944;52.538;6.108;2023-06-14T02:20:30;101468.09;;;17.90;53.74
73651;BME280;61944;52.538;6.108;2023-06-14T02:22:57;101469.94;;;18.15;52.44
73651;BME280;61944;52.538;6.108;2023-06-14T02:25:22;101469.59;;;18.05;53.04
73651;BME280;61944;52.538;6.108;2023-06-14T02:27:48;101472.75;;;18.15;52.48
73651;BME280;61944;52.538;6.108;2023-06-14T02:30:14;101474.81;;;18.14;53.02
73651;BME280;61944;52.538;6.108;2023-06-14T02:32:40;101472.84;;;18.07;53.09
73651;BME280;61944;52.538;6.108;2023-06-14T02:35:08;101476.06;;;18.10;52.95
73651;BME280;61944;52.538;6.108;2023-06-14T02:37:33;101471.97;;;18.14;52.96
73651;BME280;61944;52.538;6.108;2023-06-14T02:39:59;101472.03;;;18.03;53.07
73651;BME280;61944;52.538;6.108;2023-06-14T02:42:24;101474.50;;;17.98;53.30
73651;BME280;61944;52.538;6.108;2023-06-14T02:44:49;101478.59;;;17.90;53.82
73651;BME280;61944;52.538;6.108;2023-06-14T02:47:17;101473.72;;;17.94;53.58
73651;BME280;61944;52.538;6.108;2023-06-14T02:49:43;101476.16;;;17.92;53.70
73651;BME280;61944;52.538;6.108;2023-06-14T02:52:08;101474.59;;;17.80;54.31
73651;BME280;61944;52.538;6.108;2023-06-14T02:54:34;101476.63;;;17.83;54.11
73651;BME280;61944;52.538;6.108;2023-06-14T02:56:59;101480.25;;;17.80;54.71
73651;BME280;61944;52.538;6.108;2023-06-14T02:59:25;101475.34;;;17.95;54.11
73651;BME280;61944;52.538;6.108;2023-06-14T03:01:51;101484.31;;;17.79;54.56
73651;BME280;61944;52.538;6.108;2023-06-14T03:04:17;101481.16;;;17.62;54.57
73651;BME280;61944;52.538;6.108;2023-06-14T03:06:42;101478.22;;;17.80;54.32
73651;BME280;61944;52.538;6.108;2023-06-14T03:09:09;101480.34;;;17.65;54.83
73651;BME280;61944;52.538;6.108;2023-06-14T03:11:34;101492.84;;;17.68;55.25
73651;BME280;61944;52.538;6.108;2023-06-14T03:14:00;101489.63;;;17.66;55.15
73651;BME280;61944;52.538;6.108;2023-06-14T03:16:28;101494.88;;;17.67;55.04
73651;BME280;61944;52.538;6.108;2023-06-14T03:18:55;101493.34;;;17.48;56.06
73651;BME280;61944;52.538;6.108;2023-06-14T03:21:20;101501.06;;;17.41;56.33
73651;BME280;61944;52.538;6.108;2023-06-14T03:23:47;101498.56;;;17.54;55.79
73651;BME280;61944;52.538;6.108;2023-06-14T03:26:14;101500.59;;;17.53;56.07
73651;BME280;61944;52.538;6.108;2023-06-14T03:28:40;101499.81;;;17.56;55.91
73651;BME280;61944;52.538;6.108;2023-06-14T03:31:06;101504.63;;;17.56;56.24
73651;BME280;61944;52.538;6.108;2023-06-14T03:33:32;101503.78;;;17.62;56.07
73651;BME280;61944;52.538;6.108;2023-06-14T03:35:57;101522.41;;;17.60;56.50
73651;BME280;61944;52.538;6.108;2023-06-14T03:38:23;101518.00;;;17.52;56.93
73651;BME280;61944;52.538;6.108;2023-06-14T03:40:48;101520.81;;;17.55;56.70
73651;BME280;61944;52.538;6.108;2023-06-14T03:43:14;101517.59;;;17.53;56.90
73651;BME280;61944;52.538;6.108;2023-06-14T03:45:39;101521.69;;;17.38;57.88
73651;BME280;61944;52.538;6.108;2023-06-14T03:48:05;101530.59;;;17.33;57.50
73651;BME280;61944;52.538;6.108;2023-06-14T03:50:32;101516.84;;;17.35;58.61
73651;BME280;61944;52.538;6.108;2023-06-14T03:52:58;101530.63;;;17.22;58.14
73651;BME280;61944;52.538;6.108;2023-06-14T03:55:23;101524.13;;;17.28;58.25
73651;BME280;61944;52.538;6.108;2023-06-14T03:57:51;101529.41;;;17.26;58.87
73651;BME280;61944;52.538;6.108;2023-06-14T04:00:17;101530.94;;;17.56;57.42
73651;BME280;61944;52.538;6.108;2023-06-14T04:02:43;101538.28;;;17.39;58.07
73651;BME280;61944;52.538;6.108;2023-06-14T04:05:09;101534.72;;;17.03;58.58
73651;BME280;61944;52.538;6.108;2023-06-14T04:07:35;101529.09;;;16.99;60.52
73651;BME280;61944;52.538;6.108;2023-06-14T04:10:10;101535.47;;;17.28;58.77
73651;BME280;61944;52.538;6.108;2023-06-14T04:12:35;101533.91;;;17.06;61.67
73651;BME280;61944;52.538;6.108;2023-06-14T04:15:01;101542.81;;;16.97;60.19
73651;BME280;61944;52.538;6.108;2023-06-14T04:17:26;101542.38;;;17.20;60.50
73651;BME280;61944;52.538;6.108;2023-06-14T04:19:52;101542.00;;;16.97;62.99
73651;BME280;61944;52.538;6.108;2023-06-14T04:22:17;101551.69;;;16.96;60.90
73651;BME280;61944;52.538;6.108;2023-06-14T04:24:43;101563.81;;;17.11;61.78
73651;BME280;61944;52.538;6.108;2023-06-14T04:27:10;101551.69;;;17.03;62.93
73651;BME280;61944;52.538;6.108;2023-06-14T04:29:35;101550.50;;;16.86;62.37
73651;BME280;61944;52.538;6.108;2023-06-14T04:32:01;101558.56;;;16.95;64.34
73651;BME280;61944;52.538;6.108;2023-06-14T04:34:27;101564.56;;;17.22;62.28
73651;BME280;61944;52.538;6.108;2023-06-14T04:36:57;101559.72;;;17.26;62.08
73651;BME280;61944;52.538;6.108;2023-06-14T04:39:24;101563.78;;;17.18;60.75
73651;BME280;61944;52.538;6.108;2023-06-14T04:41:51;101573.53;;;16.81;64.05
73651;BME280;61944;52.538;6.108;2023-06-14T04:44:17;101575.13;;;17.11;62.71
73651;BME280;61944;52.538;6.108;2023-06-14T04:46:43;101574.72;;;17.05;65.51
73651;BME280;61944;52.538;6.108;2023-06-14T04:49:13;101579.97;;;16.81;66.82
73651;BME280;61944;52.538;6.108;2023-06-14T04:51:39;101584.00;;;16.98;62.50
73651;BME280;61944;52.538;6.108;2023-06-14T04:54:05;101585.25;;;16.86;66.55
73651;BME280;61944;52.538;6.108;2023-06-14T04:56:35;101583.59;;;16.82;66.00
73651;BME280;61944;52.538;6.108;2023-06-14T04:59:00;101588.06;;;16.90;65.91
73651;BME280;61944;52.538;6.108;2023-06-14T05:01:25;101589.69;;;16.88;66.92
73651;BME280;61944;52.538;6.108;2023-06-14T05:03:51;101583.19;;;17.09;64.84
73651;BME280;61944;52.538;6.108;2023-06-14T05:06:17;101586.44;;;17.14;65.40
73651;BME280;61944;52.538;6.108;2023-06-14T05:08:42;101592.09;;;17.14;64.29
73651;BME280;61944;52.538;6.108;2023-06-14T05:11:08;101594.91;;;17.14;63.82
73651;BME280;61944;52.538;6.108;2023-06-14T05:13:33;101591.69;;;17.12;65.09
73651;BME280;61944;52.538;6.108;2023-06-14T05:15:59;101597.31;;;17.19;63.46
73651;BME280;61944;52.538;6.108;2023-06-14T05:18:25;101596.94;;;17.03;66.81
73651;BME280;61944;52.538;6.108;2023-06-14T05:20:51;101598.16;;;16.95;66.71
73651;BME280;61944;52.538;6.108;2023-06-14T05:23:16;101601.41;;;16.93;66.61
73651;BME280;61944;52.538;6.108;2023-06-14T05:25:45;101605.84;;;16.98;64.90
73651;BME280;61944;52.538;6.108;2023-06-14T05:28:11;101602.59;;;16.89;67.68
73651;BME280;61944;52.538;6.108;2023-06-14T05:30:38;101603.00;;;17.01;66.79
73651;BME280;61944;52.538;6.108;2023-06-14T05:33:03;101607.84;;;17.08;65.93
73651;BME280;61944;52.538;6.108;2023-06-14T05:35:29;101610.69;;;16.97;65.75
73651;BME280;61944;52.538;6.108;2023-06-14T05:37:54;101606.66;;;17.05;64.90
73651;BME280;61944;52.538;6.108;2023-06-14T05:40:20;101604.19;;;17.25;65.18
73651;BME280;61944;52.538;6.108;2023-06-14T05:42:46;101606.63;;;17.27;65.95
73651;BME280;61944;52.538;6.108;2023-06-14T05:45:11;101602.53;;;17.39;63.98
73651;BME280;61944;52.538;6.108;2023-06-14T05:47:37;101605.38;;;17.46;65.52
73651;BME280;61944;52.538;6.108;2023-06-14T05:50:02;101606.16;;;17.46;65.41
73651;BME280;61944;52.538;6.108;2023-06-14T05:52:28;101618.63;;;17.78;62.67
73651;BME280;61944;52.538;6.108;2023-06-14T05:54:54;101623.09;;;17.64;64.38
73651;BME280;61944;52.538;6.108;2023-06-14T05:57:20;101614.66;;;17.50;65.21
73651;BME280;61944;52.538;6.108;2023-06-14T05:59:45;101633.16;;;17.80;65.46
73651;BME280;61944;52.538;6.108;2023-06-14T06:02:10;101626.66;;;17.94;64.10
73651;BME280;61944;52.538;6.108;2023-06-14T06:04:36;101631.53;;;17.93;63.13
73651;BME280;61944;52.538;6.108;2023-06-14T06:07:01;101637.09;;;18.15;61.11
73651;BME280;61944;52.538;6.108;2023-06-14T06:09:26;101637.88;;;18.22;64.47
73651;BME280;61944;52.538;6.108;2023-06-14T06:11:52;101634.28;;;18.81;63.96
73651;BME280;61944;52.538;6.108;2023-06-14T06:14:17;101630.06;;;19.04;60.29
73651;BME280;61944;52.538;6.108;2023-06-14T06:16:42;101639.84;;;20.13;59.91
73651;BME280;61944;52.538;6.108;2023-06-14T06:19:08;101643.16;;;20.69;57.23
73651;BME280;61944;52.538;6.108;2023-06-14T06:21:33;101649.91;;;21.74;53.84
73651;BME280;61944;52.538;6.108;2023-06-14T06:23:58;101642.09;;;20.56;53.99
73651;BME280;61944;52.538;6.108;2023-06-14T06:26:24;101649.50;;;21.51;53.94
73651;BME280;61944;52.538;6.108;2023-06-14T06:28:51;101645.16;;;20.96;52.52
73651;BME280;61944;52.538;6.108;2023-06-14T06:31:17;101636.38;;;19.98;55.30
73651;BME280;61944;52.538;6.108;2023-06-14T06:33:42;101639.22;;;19.98;56.67
73651;BME280;61944;52.538;6.108;2023-06-14T06:36:08;101645.75;;;20.26;55.32
73651;BME280;61944;52.538;6.108;2023-06-14T06:38:33;101650.34;;;20.20;55.36
73651;BME280;61944;52.538;6.108;2023-06-14T06:40:58;101655.41;;;20.66;55.29
73651;BME280;61944;52.538;6.108;2023-06-14T06:43:24;101654.13;;;20.95;53.72
73651;BME280;61944;52.538;6.108;2023-06-14T06:45:49;101659.72;;;21.25;53.48
73651;BME280;61944;52.538;6.108;2023-06-14T06:48:14;101674.56;;;21.60;51.58
73651;BME280;61944;52.538;6.108;2023-06-14T06:50:41;101672.84;;;21.66;50.81
73651;BME280;61944;52.538;6.108;2023-06-14T06:53:06;101671.03;;;22.16;50.57
73651;BME280;61944;52.538;6.108;2023-06-14T06:55:32;101667.28;;;22.19;50.10
73651;BME280;61944;52.538;6.108;2023-06-14T06:57:57;101677.53;;;22.17;49.06
73651;BME280;61944;52.538;6.108;2023-06-14T07:00:23;101679.06;;;22.21;50.08
73651;BME280;61944;52.538;6.108;2023-06-14T07:02:48;101675.47;;;21.57;49.59
73651;BME280;61944;52.538;6.108;2023-06-14T07:05:14;101678.47;;;21.90;50.22
73651;BME280;61944;52.538;6.108;2023-06-14T07:07:39;101683.09;;;22.44;49.77
73651;BME280;61944;52.538;6.108;2023-06-14T07:10:05;101675.13;;;22.15;49.21
73651;BME280;61944;52.538;6.108;2023-06-14T07:12:31;101683.53;;;22.42;49.22
73651;BME280;61944;52.538;6.108;2023-06-14T07:14:59;101683.50;;;22.79;47.73
73651;BME280;61944;52.538;6.108;2023-06-14T07:17:25;101685.22;;;21.56;49.91
73651;BME280;61944;52.538;6.108;2023-06-14T07:19:50;101687.94;;;21.40;49.35
73651;BME280;61944;52.538;6.108;2023-06-14T07:22:16;101677.59;;;21.26;50.60
73651;BME280;61944;52.538;6.108;2023-06-14T07:24:41;101688.69;;;21.20;49.86
73651;BME280;61944;52.538;6.108;2023-06-14T07:27:07;101684.78;;;21.34;50.04
73651;BME280;61944;52.538;6.108;2023-06-14T07:29:33;101687.13;;;21.39;50.67
73651;BME280;61944;52.538;6.108;2023-06-14T07:31:58;101691.56;;;21.44;50.50
73651;BME280;61944;52.538;6.108;2023-06-14T07:34:23;101694.03;;;21.42;49.53
73651;BME280;61944;52.538;6.108;2023-06-14T07:36:49;101701.59;;;21.52;49.38
73651;BME280;61944;52.538;6.108;2023-06-14T07:39:14;101697.50;;;21.53;49.28
73651;BME280;61944;52.538;6.108;2023-06-14T07:41:40;101703.06;;;21.60;49.55
73651;BME280;61944;52.538;6.108;2023-06-14T07:44:05;101697.00;;;21.58;49.45
73651;BME280;61944;52.538;6.108;2023-06-14T07:46:31;101699.84;;;21.58;48.96
73651;BME280;61944;52.538;6.108;2023-06-14T07:48:56;101700.34;;;21.53;49.53
73651;BME280;61944;52.538;6.108;2023-06-14T07:51:22;101702.81;;;21.75;48.56
73651;BME280;61944;52.538;6.108;2023-06-14T07:53:48;101696.22;;;21.78;48.12
73651;BME280;61944;52.538;6.108;2023-06-14T07:56:14;101698.63;;;21.79;46.06
73651;BME280;61944;52.538;6.108;2023-06-14T07:58:39;101709.19;;;21.82;46.36
73651;BME280;61944;52.538;6.108;2023-06-14T08:01:04;101713.56;;;22.07;48.01
73651;BME280;61944;52.538;6.108;2023-06-14T08:03:32;101713.72;;;22.20;48.49
73651;BME280;61944;52.538;6.108;2023-06-14T08:05:57;101716.00;;;22.08;46.98
73651;BME280;61944;52.538;6.108;2023-06-14T08:08:23;101714.66;;;22.13;46.70
73651;BME280;61944;52.538;6.108;2023-06-14T08:10:48;101714.06;;;22.22;46.22
73651;BME280;61944;52.538;6.108;2023-06-14T08:13:14;101713.81;;;22.36;47.56
73651;BME280;61944;52.538;6.108;2023-06-14T08:15:39;101713.44;;;22.54;45.58
73651;BME280;61944;52.538;6.108;2023-06-14T08:18:04;101712.50;;;22.41;45.27
73651;BME280;61944;52.538;6.108;2023-06-14T08:20:30;101704.53;;;22.52;46.24
73651;BME280;61944;52.538;6.108;2023-06-14T08:22:56;101710.16;;;22.72;44.29
73651;BME280;61944;52.538;6.108;2023-06-14T08:25:22;101699.44;;;22.60;45.51
73651;BME280;61944;52.538;6.108;2023-06-14T08:27:48;101707.84;;;22.67;43.07
73651;BME280;61944;52.538;6.108;2023-06-14T08:30:13;101701.66;;;22.88;45.65
73651;BME280;61944;52.538;6.108;2023-06-14T08:32:39;101699.06;;;22.94;45.35
73651;BME280;61944;52.538;6.108;2023-06-14T08:35:04;101695.09;;;23.08;42.82
73651;BME280;61944;52.538;6.108;2023-06-14T08:37:30;101707.41;;;23.05;43.40
73651;BME280;61944;52.538;6.108;2023-06-14T08:39:56;101697.06;;;23.11;43.82
73651;BME280;61944;52.538;6.108;2023-06-14T08:42:24;101699.72;;;23.18;43.07
73651;BME280;61944;52.538;6.108;2023-06-14T08:44:49;101702.66;;;23.31;43.66
73651;BME280;61944;52.538;6.108;2023-06-14T08:47:15;101694.53;;;23.29;44.10
73651;BME280;61944;52.538;6.108;2023-06-14T08:49:45;101704.19;;;23.36;45.63
73651;BME280;61944;52.538;6.108;2023-06-14T08:52:13;101697.38;;;23.46;41.32
73651;BME280;61944;52.538;6.108;2023-06-14T08:54:41;101691.84;;;23.55;42.93
73651;BME280;61944;52.538;6.108;2023-06-14T08:57:11;101690.16;;;23.41;41.31
73651;BME280;61944;52.538;6.108;2023-06-14T08:59:45;101707.75;;;23.40;40.39
73651;BME280;61944;52.538;6.108;2023-06-14T09:02:11;101697.66;;;23.51;40.51
73651;BME280;61944;52.538;6.108;2023-06-14T09:04:38;101703.22;;;23.71;42.90
73651;BME280;61944;52.538;6.108;2023-06-14T09:07:05;101718.88;;;23.67;40.32
73651;BME280;61944;52.538;6.108;2023-06-14T09:09:32;101705.03;;;23.65;41.49
73651;BME280;61944;52.538;6.108;2023-06-14T09:11:57;101709.84;;;23.85;41.87
73651;BME280;61944;52.538;6.108;2023-06-14T09:14:24;101702.88;;;23.86;41.96
73651;BME280;61944;52.538;6.108;2023-06-14T09:16:54;101712.09;;;24.06;41.40
73651;BME280;61944;52.538;6.108;2023-06-14T09:19:25;101716.22;;;24.05;41.38
73651;BME280;61944;52.538;6.108;2023-06-14T09:21:52;101716.06;;;23.96;40.25
73651;BME280;61944;52.538;6.108;2023-06-14T09:24:18;101718.13;;;23.96;39.79
73651;BME280;61944;52.538;6.108;2023-06-14T09:26:47;101712.78;;;23.98;42.22
73651;BME280;61944;52.538;6.108;2023-06-14T09:29:12;101705.03;;;24.11;40.38
73651;BME280;61944;52.538;6.108;2023-06-14T09:31:38;101712.59;;;24.18;39.77
73651;BME280;61944;52.538;6.108;2023-06-14T09:34:04;101719.94;;;24.19;40.87
73651;BME280;61944;52.538;6.108;2023-06-14T09:36:31;101705.47;;;24.09;37.63
73651;BME280;61944;52.538;6.108;2023-06-14T09:38:59;101704.28;;;24.36;37.10
73651;BME280;61944;52.538;6.108;2023-06-14T09:41:36;101709.56;;;24.38;38.20
73651;BME280;61944;52.538;6.108;2023-06-14T09:44:04;101715.69;;;24.52;37.85
73651;BME280;61944;52.538;6.108;2023-06-14T09:46:30;101716.50;;;24.66;37.78
73651;BME280;61944;52.538;6.108;2023-06-14T09:48:56;101714.56;;;24.63;37.58
73651;BME280;61944;52.538;6.108;2023-06-14T09:51:23;101708.53;;;24.44;37.44
73651;BME280;61944;52.538;6.108;2023-06-14T09:53:49;101715.69;;;24.52;36.88
73651;BME280;61944;52.538;6.108;2023-06-14T09:56:29;101715.72;;;24.78;37.15
73651;BME280;61944;52.538;6.108;2023-06-14T09:58:59;101711.47;;;24.70;36.88
73651;BME280;61944;52.538;6.108;2023-06-14T10:01:25;101716.75;;;24.84;36.25
73651;BME280;61944;52.538;6.108;2023-06-14T10:04:03;101698.53;;;24.78;37.13
73651;BME280;61944;52.538;6.108;2023-06-14T10:06:29;101712.75;;;24.94;37.08
73651;BME280;61944;52.538;6.108;2023-06-14T10:08:57;101712.16;;;24.61;38.18
73651;BME280;61944;52.538;6.108;2023-06-14T10:11:27;101706.09;;;24.98;38.73
73651;BME280;61944;52.538;6.108;2023-06-14T10:13:57;101707.00;;;24.94;36.43
73651;BME280;61944;52.538;6.108;2023-06-14T10:16:32;101704.81;;;25.11;36.27
73651;BME280;61944;52.538;6.108;2023-06-14T10:23:49;101718.16;;;25.53;35.68
73651;BME280;61944;52.538;6.108;2023-06-14T10:26:22;101713.88;;;25.35;35.96
73651;BME280;61944;52.538;6.108;2023-06-14T10:31:39;101704.91;;;25.33;37.27
73651;BME280;61944;52.538;6.108;2023-06-14T10:34:05;101708.59;;;25.47;35.16
73651;BME280;61944;52.538;6.108;2023-06-14T10:36:31;101718.06;;;25.56;35.71
73651;BME280;61944;52.538;6.108;2023-06-14T10:38:59;101708.06;;;25.61;34.93
73651;BME280;61944;52.538;6.108;2023-06-14T10:41:27;101695.28;;;25.75;35.62
73651;BME280;61944;52.538;6.108;2023-06-14T10:46:48;101699.53;;;26.05;35.44
73651;BME280;61944;52.538;6.108;2023-06-14T10:49:18;101703.47;;;25.99;35.08
73651;BME280;61944;52.538;6.108;2023-06-14T10:51:51;101696.41;;;26.12;35.27
73651;BME280;61944;52.538;6.108;2023-06-14T10:54:20;101696.81;;;26.02;34.81
73651;BME280;61944;52.538;6.108;2023-06-14T10:56:47;101694.81;;;26.11;35.53
73651;BME280;61944;52.538;6.108;2023-06-14T10:59:13;101697.28;;;26.00;33.89
73651;BME280;61944;52.538;6.108;2023-06-14T11:02:14;101694.88;;;26.21;32.63
73651;BME280;61944;52.538;6.108;2023-06-14T11:04:49;101699.53;;;26.27;33.54
73651;BME280;61944;52.538;6.108;2023-06-14T11:12:48;101702.78;;;26.39;32.88
73651;BME280;61944;52.538;6.108;2023-06-14T11:15:14;101695.22;;;26.54;32.20
73651;BME280;61944;52.538;6.108;2023-06-14T11:17:50;101689.06;;;26.65;31.58
73651;BME280;61944;52.538;6.108;2023-06-14T11:20:16;101695.22;;;26.76;33.17
73651;BME280;61944;52.538;6.108;2023-06-14T11:22:42;101696.84;;;26.33;32.96
73651;BME280;61944;52.538;6.108;2023-06-14T11:25:11;101691.31;;;26.61;31.26
73651;BME280;61944;52.538;6.108;2023-06-14T11:27:37;101697.19;;;26.57;31.38
73651;BME280;61944;52.538;6.108;2023-06-14T11:30:03;101688.84;;;26.81;31.61
73651;BME280;61944;52.538;6.108;2023-06-14T11:32:31;101680.19;;;26.72;31.28
73651;BME280;61944;52.538;6.108;2023-06-14T11:34:56;101687.91;;;26.84;32.65
73651;BME280;61944;52.538;6.108;2023-06-14T11:37:23;101679.88;;;26.79;32.78
73651;BME280;61944;52.538;6.108;2023-06-14T11:39:51;101675.44;;;26.87;31.70
73651;BME280;61944;52.538;6.108;2023-06-14T11:42:16;101689.22;;;26.92;30.40
73651;BME280;61944;52.538;6.108;2023-06-14T11:44:42;101681.28;;;27.15;30.89
73651;BME280;61944;52.538;6.108;2023-06-14T11:47:07;101696.88;;;27.05;30.39
73651;BME280;61944;52.538;6.108;2023-06-14T11:49:36;101675.00;;;26.89;30.68
73651;BME280;61944;52.538;6.108;2023-06-14T11:52:02;101690.22;;;27.08;30.06
73651;BME280;61944;52.538;6.108;2023-06-14T11:54:27;101679.41;;;26.71;30.78
73651;BME280;61944;52.538;6.108;2023-06-14T11:56:53;101683.22;;;27.18;30.65
73651;BME280;61944;52.538;6.108;2023-06-14T11:59:20;101688.28;;;27.05;29.88
73651;BME280;61944;52.538;6.108;2023-06-14T12:01:47;101678.72;;;27.08;29.98
73651;BME280;61944;52.538;6.108;2023-06-14T12:04:13;101685.84;;;27.34;32.25
73651;BME280;61944;52.538;6.108;2023-06-14T12:06:38;101681.34;;;27.33;31.34
73651;BME280;61944;52.538;6.108;2023-06-14T12:09:08;101676.72;;;27.27;30.95
73651;BME280;61944;52.538;6.108;2023-06-14T12:11:38;101697.63;;;27.27;30.48
73651;BME280;61944;52.538;6.108;2023-06-14T12:14:04;101690.94;;;27.49;31.24
73651;BME280;61944;52.538;6.108;2023-06-14T12:16:32;101682.66;;;27.42;29.78
73651;BME280;61944;52.538;6.108;2023-06-14T12:19:00;101682.03;;;27.65;30.02
73651;BME280;61944;52.538;6.108;2023-06-14T12:21:27;101676.56;;;27.49;29.95
73651;BME280;61944;52.538;6.108;2023-06-14T12:23:54;101673.72;;;27.67;30.61
73651;BME280;61944;52.538;6.108;2023-06-14T12:26:19;101674.84;;;28.07;30.79
73651;BME280;61944;52.538;6.108;2023-06-14T12:28:46;101673.59;;;27.89;30.32
73651;BME280;61944;52.538;6.108;2023-06-14T12:31:12;101689.72;;;27.96;29.03
73651;BME280;61944;52.538;6.108;2023-06-14T12:33:39;101688.56;;;28.21;29.46
73651;BME280;61944;52.538;6.108;2023-06-14T12:36:10;101695.44;;;28.24;29.76
73651;BME280;61944;52.538;6.108;2023-06-14T12:38:36;101682.66;;;27.78;28.58
73651;BME280;61944;52.538;6.108;2023-06-14T12:41:02;101679.00;;;27.96;29.16
73651;BME280;61944;52.538;6.108;2023-06-14T12:43:27;101675.94;;;28.09;29.16
73651;BME280;61944;52.538;6.108;2023-06-14T12:45:53;101678.22;;;27.96;29.90
73651;BME280;61944;52.538;6.108;2023-06-14T12:48:19;101682.63;;;28.25;29.58
73651;BME280;61944;52.538;6.108;2023-06-14T12:50:45;101672.47;;;28.66;29.43
73651;BME280;61944;52.538;6.108;2023-06-14T12:53:10;101684.78;;;28.67;28.97
73651;BME280;61944;52.538;6.108;2023-06-14T12:55:36;101679.78;;;28.15;28.77
73651;BME280;61944;52.538;6.108;2023-06-14T12:58:01;101685.00;;;28.45;28.62
73651;BME280;61944;52.538;6.108;2023-06-14T13:00:26;101679.06;;;28.48;28.84
73651;BME280;61944;52.538;6.108;2023-06-14T13:02:52;101688.38;;;28.25;28.72